Monroe County Airport
KBMG : now visible

Airfield :











YOU CAN JOIN US ON...

 
LOGIN :

Register | Disclaimer

   EN    FR    IT 

 









Legend :    VFR   Marginal VFR   IFR   Intensive IFR   Very Intensive IFR
Visi :
Ceiling :
>= 8 km
>= 3000ft
5 to 8 km
1000 to 3000 ft
1500m to 5 km
500 to 1000 ft
800 to 1500m
200 to 500 ft
< 800m
< 200 ft
Symbols :   Thunderstorms  Fog  Heavy snow  Heavy precipitations  Wind > 20 kt






- Airport Elevation : 846 ft
- IATA code : BMG


KBMG - Monroe County

CURRENT METAR :
  • 241253Z 35012G21KT 10SM -SN OVC014 00/M03 A2991 RMK AO2 SNB51 SLP132 P0000 T00001033

EXPIRED METARs :
  • 241153Z 33009G21KT 10SM OVC013 01/M03 A2986 RMK AO2 SLP116 T00061028 10089 20006 53035
  • 241053Z AUTO 34010G24KT 10SM OVC013 01/M02 A2982 RMK AO2 SLP102 T00111022
  • 240953Z AUTO 34016G23KT 10SM OVC010 02/M01 A2978 RMK AO2 PK WND 35026/0905 CIG 009V014 SLP087 T00221011
  • 240938Z AUTO 34012G22KT 10SM OVC010 02/M01 A2978 RMK AO2 PK WND 35026/0905 T00221006
  • 240914Z AUTO 34012G26KT 10SM OVC009 03/00 A2977 RMK AO2 PK WND 35026/0905 T00280000
  • 240853Z AUTO 34014G23KT 10SM OVC011 03/01 A2976 RMK AO2 SLP078 T00330006 53015
  • 240830Z AUTO 35016KT 10SM BKN012 BKN018 OVC050 04/01 A2975 RMK AO2 T00390011

TAF KBMG
Valid from the 24 at 12:00 until the 25 at 12:00 UTC


241120Z 2412/2512 35014G22KT P6SM -SN OVC012
FM241500 36011KT P6SM BKN021
FM241700 36009KT P6SM BKN035
FM241900 35007KT P6SM FEW150
FM250100 00000KT P6SM SKC
FM250400 18005KT P6SM FEW250
FM251100 18009KT P6SM SKC
KZID FIR / North America



MET'MAP, your aeronautical weather chart ! - Copyright ORBIFLY December 2007 - Disclaimer

ORBIFLY MET'MAP TEAM :

Programming & Development : Alexandra Zaïnal
Original concept : Baudouin d'Aumeries
Technical & hardware support : Manuel Goepfert
Assistance : Marc-Olivier Méhu




SOURCES & CREDITS :

   NOAA       Earth
Advisory